Battle Mountain Information

FAA: BAM - ICAO: KBAM

Battle Mountain (Airport) Location

State Nevada
County Lander
City Battle Mountain
Battle Mountain (Airport) is 3 miles southeast of Battle Mountain, NV.
Latitude 40-35-56.6000N
Longitude 116-52-27.6000W
Elevation 4,536ft

Battle Mountain METARs

METAR KBAM 060735Z AUTO 05004KT 10SM CLR M03/M07 A3031 RMK AO1
Altimeter 30.31"
Temperature -3.0°C (26.6°F)
Wind 50° at 4KT
Clouds Skies are clear.
Visibility 10.0mi
Time observed: 2021-12-06T07:35:00Z

Battle Mountain (Airport) Details

Status Operational
Activation February 1944
Ownership Public
Usage Public
Chart SALT LAKE CITY
ATC on-site No
Beacon schedule sunset-sunrise
Beacon color clear green

Battle Mountain (Airport) Contacts

Owner LANDER COUNTY
Owner address 50 STATE ROUTE 305, BATTLE MOUNTAIN, NV 89820
Owner phone 775-635-2885
Manager DARYLL LIGHTNER
Manager address 9509 LARGES COURT, LINCOLN, NE 68512
Manager phone 402-610-3500

Battle Mountain Radio Frequencies

Battle Mountain (Airport) Radio Frequencies

UNICOM 122.8
Common traffic advisory frequency (CTAF) 122.8